createdAt,value
2023-02-17T00:01:37.356Z,1.75
2023-02-17T00:04:09.578Z,1.76
2023-02-17T00:06:41.847Z,1.75
2023-02-17T00:09:14.181Z,1.77
2023-02-17T00:11:46.396Z,1.80
2023-02-17T00:14:19.084Z,1.81
2023-02-17T00:16:51.596Z,1.83
2023-02-17T00:19:27.635Z,1.84
2023-02-17T00:22:02.398Z,1.84
2023-02-17T00:24:36.007Z,1.84
2023-02-17T00:27:08.597Z,1.84
2023-02-17T00:29:41.043Z,1.84
2023-02-17T00:32:14.582Z,1.85
2023-02-17T00:34:48.223Z,1.86
2023-02-17T00:37:21.024Z,1.90
2023-02-17T00:39:53.186Z,1.95
2023-02-17T00:42:28.642Z,1.96
2023-02-17T00:45:04.828Z,1.97
2023-02-17T00:47:37.687Z,1.98
2023-02-17T00:50:14.765Z,2.00
2023-02-17T00:52:53.604Z,2.01
2023-02-17T00:55:26.821Z,2.03
2023-02-17T00:57:59.152Z,2.03
2023-02-17T01:00:34.935Z,2.00
2023-02-17T01:03:07.842Z,1.98
2023-02-17T01:05:45.456Z,1.95
2023-02-17T01:08:26.538Z,2.04
2023-02-17T01:11:02.116Z,2.05
2023-02-17T01:13:38.853Z,2.03
2023-02-17T01:16:21.901Z,2.00
2023-02-17T01:18:54.919Z,1.95
2023-02-17T01:21:32.849Z,1.84
2023-02-17T01:24:10.392Z,1.70
2023-02-17T01:26:47.173Z,1.64
2023-02-17T01:29:19.841Z,1.60
2023-02-17T01:31:55.381Z,1.58
2023-02-17T01:34:28.867Z,1.56
2023-02-17T01:37:01.662Z,1.52
2023-02-17T01:39:34.189Z,1.47
2023-02-17T01:42:14.602Z,1.43
2023-02-17T01:45:33.434Z,1.37
2023-02-17T01:48:12.051Z,1.33
2023-02-17T01:54:05.226Z,1.32
2023-02-17T01:56:39.966Z,1.29
2023-02-17T01:59:23.260Z,1.28
2023-02-17T02:02:04.466Z,1.27
2023-02-17T02:04:43.560Z,1.27
2023-02-17T02:07:23.000Z,1.24
2023-02-17T02:09:58.203Z,1.19
2023-02-17T02:12:36.026Z,1.16
2023-02-17T02:15:14.599Z,1.15
2023-02-17T02:18:03.398Z,1.16
2023-02-17T02:21:01.912Z,1.19
2023-02-17T02:24:02.877Z,1.16
2023-02-17T02:27:28.361Z,1.16
2023-02-17T02:30:26.641Z,1.18
2023-02-17T02:33:18.439Z,1.19
2023-02-17T02:36:08.500Z,1.20
2023-02-17T02:38:52.929Z,1.20
2023-02-17T02:41:30.686Z,1.20
2023-02-17T02:44:04.205Z,1.21
2023-02-17T02:46:37.043Z,1.25
2023-02-17T02:49:11.203Z,1.29
2023-02-17T02:51:56.040Z,1.33
2023-02-17T02:54:42.239Z,1.37
2023-02-17T02:57:35.446Z,1.40
2023-02-17T03:00:31.585Z,1.43
2023-02-17T03:03:14.386Z,1.46
2023-02-17T03:05:58.017Z,1.49
2023-02-17T03:08:36.133Z,1.53
2023-02-17T03:11:08.703Z,1.55
2023-02-17T03:13:42.750Z,1.57
2023-02-17T03:16:23.816Z,1.56
2023-02-17T03:19:03.395Z,1.59
2023-02-17T03:21:44.283Z,1.60
2023-02-17T03:24:25.848Z,1.62
2023-02-17T03:26:59.482Z,1.63
2023-02-17T03:29:32.758Z,1.64
2023-02-17T03:32:09.413Z,1.67
2023-02-17T03:34:44.905Z,1.70
2023-02-17T03:37:19.124Z,1.71
2023-02-17T03:39:54.662Z,1.72
2023-02-17T03:42:28.471Z,1.74
2023-02-17T03:45:01.389Z,1.76
2023-02-17T03:47:33.986Z,1.80
2023-02-17T03:50:07.602Z,1.83
2023-02-17T03:52:40.292Z,1.85
2023-02-17T03:55:16.874Z,1.85
2023-02-17T03:57:53.242Z,1.84
2023-02-17T04:00:33.348Z,1.85
2023-02-17T04:03:07.277Z,1.86
2023-02-17T04:05:39.681Z,1.86
2023-02-17T04:08:14.750Z,1.88
2023-02-17T04:10:52.528Z,1.90
2023-02-17T04:13:25.916Z,1.93
2023-02-17T04:16:02.213Z,1.94
2023-02-17T04:18:41.678Z,1.96
2023-02-17T04:21:17.876Z,1.98
2023-02-17T04:23:50.322Z,2.01
2023-02-17T04:26:28.211Z,2.05
2023-02-17T04:29:00.926Z,2.09
2023-02-17T04:31:38.400Z,2.12
2023-02-17T04:34:12.465Z,2.15
2023-02-17T04:36:46.201Z,2.18
2023-02-17T04:39:22.120Z,2.21
2023-02-17T04:41:56.867Z,2.24
2023-02-17T04:44:31.858Z,2.27
2023-02-17T04:47:09.007Z,2.31
2023-02-17T04:49:55.038Z,2.33
2023-02-17T04:52:28.777Z,2.36
2023-02-17T04:55:04.325Z,2.39
2023-02-17T04:57:39.648Z,2.42
2023-02-17T05:00:14.037Z,2.44
2023-02-17T05:02:46.585Z,2.46
2023-02-17T05:05:19.628Z,2.48
2023-02-17T05:07:52.226Z,2.50
2023-02-17T05:10:24.661Z,2.52
2023-02-17T05:12:57.097Z,2.54
2023-02-17T05:15:29.809Z,2.53
2023-02-17T05:18:09.011Z,2.55
2023-02-17T05:20:42.537Z,2.56
2023-02-17T05:23:18.193Z,2.54
2023-02-17T05:25:51.548Z,2.52
2023-02-17T05:28:28.971Z,2.52
2023-02-17T05:31:07.223Z,2.54
2023-02-17T05:33:46.884Z,2.55
2023-02-17T05:36:22.086Z,2.54
2023-02-17T05:38:55.736Z,2.53
2023-02-17T05:41:31.274Z,2.53
2023-02-17T05:44:08.561Z,2.51
2023-02-17T05:46:41.057Z,2.51
2023-02-17T05:49:13.734Z,2.49
2023-02-17T05:51:48.504Z,2.47
2023-02-17T05:54:20.929Z,2.47
2023-02-17T05:56:53.466Z,2.46
2023-02-17T05:59:27.527Z,2.47
2023-02-17T06:02:04.412Z,2.48
2023-02-17T06:04:40.334Z,2.48
2023-02-17T06:07:18.598Z,2.49
2023-02-17T06:09:51.646Z,2.52
2023-02-17T06:12:28.041Z,2.53
2023-02-17T06:15:09.147Z,2.53
2023-02-17T06:17:47.739Z,2.54
2023-02-17T06:20:20.905Z,2.54
2023-02-17T06:22:58.911Z,2.55
2023-02-17T06:25:40.690Z,2.56
2023-02-17T06:28:17.177Z,2.59
2023-02-17T06:30:52.355Z,2.60
2023-02-17T06:33:29.643Z,2.63
2023-02-17T06:36:02.104Z,2.65
2023-02-17T06:38:35.866Z,2.67
2023-02-17T06:41:11.534Z,2.70
2023-02-17T06:43:47.898Z,2.72
2023-02-17T06:46:20.306Z,2.75
2023-02-17T06:49:00.232Z,2.77
2023-02-17T06:51:32.762Z,2.80
2023-02-17T06:54:10.217Z,2.81
2023-02-17T06:56:42.804Z,2.82
2023-02-17T06:59:15.034Z,2.85
2023-02-17T07:01:49.467Z,2.90
2023-02-17T07:04:21.948Z,2.92
2023-02-17T07:06:54.193Z,2.94
2023-02-17T07:09:26.420Z,2.97
2023-02-17T07:11:58.835Z,3.00
2023-02-17T07:14:31.201Z,3.05
2023-02-17T07:17:04.577Z,3.09
2023-02-17T07:19:36.791Z,3.12
2023-02-17T07:22:09.000Z,3.16
2023-02-17T07:24:41.735Z,3.20
2023-02-17T07:27:15.181Z,3.26
2023-02-17T07:29:47.615Z,3.30
2023-02-17T07:32:21.750Z,3.35
2023-02-17T07:34:53.976Z,3.39
2023-02-17T07:37:26.270Z,3.45
2023-02-17T07:39:58.683Z,3.49
2023-02-17T07:42:31.166Z,3.54
2023-02-17T07:45:03.922Z,3.57
2023-02-17T07:47:36.301Z,3.59
2023-02-17T07:50:10.412Z,3.61
2023-02-17T07:52:42.593Z,3.70
2023-02-17T07:55:15.005Z,3.78
2023-02-17T07:57:47.768Z,3.84
2023-02-17T08:00:21.628Z,3.89
2023-02-17T08:02:53.723Z,3.92
2023-02-17T08:05:26.113Z,3.99
2023-02-17T08:08:12.081Z,4.04
2023-02-17T08:11:03.012Z,4.08
2023-02-17T08:13:35.242Z,4.13
2023-02-17T08:16:10.329Z,4.16
2023-02-17T08:18:44.174Z,4.21
2023-02-17T08:21:16.468Z,4.25
2023-02-17T08:23:48.949Z,4.28
2023-02-17T08:26:22.254Z,4.31
2023-02-17T08:28:54.722Z,4.34
2023-02-17T08:31:30.785Z,4.38
2023-02-17T08:34:06.668Z,4.43
2023-02-17T08:36:39.626Z,4.47
2023-02-17T08:39:15.276Z,4.52
2023-02-17T08:41:47.840Z,4.59
2023-02-17T08:44:22.597Z,4.69
2023-02-17T08:46:55.638Z,4.79
2023-02-17T08:49:30.139Z,4.87
2023-02-17T08:52:02.760Z,4.93
2023-02-17T08:54:35.765Z,4.99
2023-02-17T08:57:08.451Z,5.03
2023-02-17T08:59:40.794Z,5.05
2023-02-17T09:02:14.338Z,5.04
2023-02-17T09:04:49.275Z,5.02
2023-02-17T09:07:22.231Z,5.02
2023-02-17T09:09:54.844Z,5.05
2023-02-17T09:12:27.128Z,5.11
2023-02-17T09:14:59.830Z,5.18
2023-02-17T09:17:32.440Z,5.24
2023-02-17T09:20:16.271Z,5.28
2023-02-17T09:22:53.929Z,5.35
2023-02-17T09:25:26.546Z,5.40
2023-02-17T09:27:59.936Z,5.45
2023-02-17T09:30:36.831Z,5.55
2023-02-17T09:33:09.219Z,5.61
2023-02-17T09:35:42.356Z,5.70
2023-02-17T09:38:14.637Z,5.75
2023-02-17T09:40:49.912Z,5.75
2023-02-17T09:43:28.487Z,5.75
2023-02-17T09:46:08.438Z,5.79
2023-02-17T09:48:42.230Z,5.89
2023-02-17T09:51:22.804Z,5.96
2023-02-17T09:53:58.317Z,5.98
2023-02-17T09:56:35.498Z,5.96
2023-02-17T09:59:19.039Z,5.95
2023-02-17T10:01:53.243Z,5.96
2023-02-17T10:04:30.392Z,5.98
2023-02-17T10:07:09.297Z,6.03
2023-02-17T10:09:49.731Z,6.12
2023-02-17T10:12:26.767Z,6.27
2023-02-17T10:15:02.758Z,6.35
2023-02-17T10:17:45.597Z,6.40
2023-02-17T10:20:22.111Z,6.46
2023-02-17T10:23:00.994Z,6.59
2023-02-17T10:25:52.530Z,6.71
2023-02-17T10:28:39.385Z,6.82
2023-02-17T10:31:16.627Z,6.87
2023-02-17T10:33:55.238Z,6.88
2023-02-17T10:36:38.579Z,6.89
2023-02-17T10:39:17.288Z,6.92
2023-02-17T10:41:52.813Z,6.88
2023-02-17T10:44:26.884Z,6.83
2023-02-17T10:46:59.277Z,6.84
2023-02-17T10:49:42.777Z,6.85
2023-02-17T10:52:18.537Z,6.89
2023-02-17T10:54:59.954Z,6.95
2023-02-17T10:57:39.678Z,7.13
2023-02-17T11:00:17.796Z,7.33
2023-02-17T11:02:52.466Z,7.48
2023-02-17T11:05:27.362Z,7.59
2023-02-17T11:08:02.807Z,7.66
2023-02-17T11:10:37.448Z,7.67
2023-02-17T11:13:34.589Z,7.65
2023-02-17T11:16:22.852Z,7.55
2023-02-17T11:18:56.408Z,7.43
2023-02-17T11:21:33.279Z,7.34
2023-02-17T11:24:08.090Z,7.27
2023-02-17T11:26:43.263Z,7.17
2023-02-17T11:29:22.838Z,7.11
2023-02-17T11:32:00.281Z,7.08
2023-02-17T11:34:34.941Z,7.08
2023-02-17T11:37:21.116Z,7.08
2023-02-17T11:39:55.276Z,7.05
2023-02-17T11:42:33.628Z,7.00
2023-02-17T11:45:23.212Z,6.97
2023-02-17T11:48:09.858Z,6.95
2023-02-17T11:50:51.937Z,6.92
2023-02-17T11:53:37.091Z,6.91
2023-02-17T11:56:18.510Z,6.92
2023-02-17T11:59:08.445Z,6.92
2023-02-17T12:01:58.498Z,6.89
2023-02-17T12:04:33.436Z,6.89
2023-02-17T12:07:39.251Z,6.88
2023-02-17T12:10:23.750Z,6.88
2023-02-17T12:13:06.595Z,6.86
2023-02-17T12:15:54.368Z,6.81
2023-02-17T12:18:43.011Z,6.77
2023-02-17T12:21:27.012Z,6.69
2023-02-17T12:24:18.546Z,6.63
2023-02-17T12:26:57.058Z,6.60
2023-02-17T12:29:42.793Z,6.54
2023-02-17T12:32:28.272Z,6.47
2023-02-17T12:35:04.930Z,6.41
2023-02-17T12:37:48.486Z,6.37
2023-02-17T12:40:34.167Z,6.32
2023-02-17T12:43:19.182Z,6.30
2023-02-17T12:45:52.623Z,6.29
2023-02-17T12:48:33.949Z,6.27
2023-02-17T12:51:12.527Z,6.25
2023-02-17T12:53:50.755Z,6.21
2023-02-17T12:56:50.715Z,6.19
2023-02-17T12:59:28.045Z,6.15
2023-02-17T13:02:03.682Z,6.13
2023-02-17T13:04:37.591Z,6.10
2023-02-17T13:07:24.357Z,6.09
2023-02-17T13:09:58.624Z,6.08
2023-02-17T13:12:41.740Z,6.03
2023-02-17T13:15:36.158Z,5.99
2023-02-17T13:18:13.240Z,5.98
2023-02-17T13:20:58.290Z,5.98
2023-02-17T13:23:42.435Z,6.01
2023-02-17T13:26:32.620Z,6.04
2023-02-17T13:29:33.325Z,6.05
2023-02-17T13:32:06.349Z,6.06
2023-02-17T13:34:42.512Z,6.06
2023-02-17T13:37:39.864Z,6.08
2023-02-17T13:40:38.978Z,6.11
2023-02-17T13:43:28.381Z,6.13
2023-02-17T13:46:06.227Z,6.18
2023-02-17T13:48:38.932Z,6.22
2023-02-17T13:51:29.739Z,6.27
2023-02-17T13:54:08.660Z,6.30
2023-02-17T13:56:42.339Z,6.32
2023-02-17T13:59:18.842Z,6.35
2023-02-17T14:01:51.524Z,6.37
2023-02-17T14:04:27.481Z,6.38
2023-02-17T14:07:04.444Z,6.40
2023-02-17T14:09:37.381Z,6.43
2023-02-17T14:12:20.645Z,6.45
2023-02-17T14:14:53.156Z,6.47
2023-02-17T14:17:33.656Z,6.49
2023-02-17T14:20:06.926Z,6.50
2023-02-17T14:22:39.284Z,6.52
2023-02-17T14:25:17.125Z,6.55
2023-02-17T14:27:51.304Z,6.59
2023-02-17T14:30:34.546Z,6.62
2023-02-17T14:33:09.560Z,6.63
2023-02-17T14:36:15.570Z,6.61
2023-02-17T14:38:55.728Z,6.61
2023-02-17T14:41:28.578Z,6.61
2023-02-17T14:44:01.106Z,6.60
2023-02-17T14:46:35.050Z,6.61
2023-02-17T14:49:07.437Z,6.60
2023-02-17T14:51:40.675Z,6.61
2023-02-17T14:54:16.786Z,6.62
2023-02-17T14:56:56.380Z,6.62
2023-02-17T14:59:28.492Z,6.61
2023-02-17T15:02:01.089Z,6.59
2023-02-17T15:04:33.350Z,6.58
2023-02-17T15:07:08.367Z,6.57
2023-02-17T15:09:46.753Z,6.54
2023-02-17T15:12:21.293Z,6.52
2023-02-17T15:14:53.499Z,6.51
2023-02-17T15:17:25.761Z,6.51
2023-02-17T15:19:58.048Z,6.49
2023-02-17T15:22:30.243Z,6.50
2023-02-17T15:25:02.642Z,6.48
2023-02-17T15:27:35.537Z,6.48
2023-02-17T15:30:11.643Z,6.49
2023-02-17T15:32:48.040Z,6.50
2023-02-17T15:35:23.329Z,6.51
2023-02-17T15:37:56.530Z,6.52
2023-02-17T15:40:30.676Z,6.52
2023-02-17T15:43:03.519Z,6.51
2023-02-17T15:45:36.197Z,6.51
2023-02-17T15:48:13.790Z,6.50
2023-02-17T15:50:46.138Z,6.49
2023-02-17T15:53:18.596Z,6.49
2023-02-17T15:55:52.129Z,6.49
2023-02-17T15:58:25.758Z,6.47
2023-02-17T16:01:01.757Z,6.45
2023-02-17T16:03:34.839Z,6.43
2023-02-17T16:06:08.586Z,6.42
2023-02-17T16:08:43.414Z,6.40
2023-02-17T16:11:17.686Z,6.42
2023-02-17T16:13:52.338Z,6.41
2023-02-17T16:16:28.793Z,6.39
2023-02-17T16:19:01.347Z,6.38
2023-02-17T16:21:33.837Z,6.37
2023-02-17T16:24:07.043Z,6.35
2023-02-17T16:26:41.537Z,6.32
2023-02-17T16:29:19.036Z,6.31
2023-02-17T16:31:52.465Z,6.32
2023-02-17T16:34:26.025Z,6.32
2023-02-17T16:37:01.731Z,6.32
2023-02-17T16:39:34.021Z,6.32
2023-02-17T16:42:06.626Z,6.31
2023-02-17T16:44:39.080Z,6.32
2023-02-17T16:47:21.098Z,6.32
2023-02-17T16:49:58.887Z,6.31
2023-02-17T16:52:31.433Z,6.31
2023-02-17T16:55:03.716Z,6.32
2023-02-17T16:57:36.516Z,6.34
2023-02-17T17:00:12.132Z,6.37
2023-02-17T17:02:45.158Z,6.37
2023-02-17T17:05:22.224Z,6.38
2023-02-17T17:07:55.022Z,6.41
2023-02-17T17:10:30.838Z,6.43
2023-02-17T17:13:03.545Z,6.46
2023-02-17T17:15:38.765Z,6.48
2023-02-17T17:18:21.475Z,6.51
2023-02-17T17:20:55.653Z,6.53
2023-02-17T17:23:29.486Z,6.55
2023-02-17T17:26:01.914Z,6.56
2023-02-17T17:28:34.732Z,6.58
2023-02-17T17:31:07.838Z,6.60
2023-02-17T17:33:40.021Z,6.61
2023-02-17T17:36:21.029Z,6.62
2023-02-17T17:38:53.885Z,6.62
2023-02-17T17:41:28.151Z,6.65
2023-02-17T17:44:01.304Z,6.68
2023-02-17T17:46:36.062Z,6.69
2023-02-17T17:49:10.507Z,6.68
2023-02-17T17:51:43.193Z,6.66
2023-02-17T17:54:15.493Z,6.66
2023-02-17T17:56:48.155Z,6.66
2023-02-17T17:59:20.577Z,6.66
2023-02-17T18:01:52.868Z,6.67
2023-02-17T18:04:25.306Z,6.68
2023-02-17T18:07:02.052Z,6.70
2023-02-17T18:09:39.486Z,6.73
2023-02-17T18:12:13.703Z,6.74
2023-02-17T18:14:49.218Z,6.76
2023-02-17T18:17:22.582Z,6.77
2023-02-17T18:19:56.515Z,6.76
2023-02-17T18:22:28.979Z,6.78
2023-02-17T18:25:01.817Z,6.80
2023-02-17T18:27:40.241Z,6.80
2023-02-17T18:30:16.683Z,6.82
2023-02-17T18:32:51.633Z,6.85
2023-02-17T18:35:26.068Z,6.84
2023-02-17T18:37:58.349Z,6.85
2023-02-17T18:40:30.626Z,6.87
2023-02-17T18:43:02.924Z,6.88
2023-02-17T18:45:35.310Z,6.90
2023-02-17T18:48:07.881Z,6.91
2023-02-17T18:50:40.423Z,6.92
2023-02-17T18:53:13.172Z,6.94
2023-02-17T18:55:45.416Z,6.96
2023-02-17T18:58:18.296Z,7.00
2023-02-17T19:00:50.563Z,7.03
2023-02-17T19:03:23.644Z,7.04
2023-02-17T19:05:55.914Z,7.05
2023-02-17T19:08:29.189Z,7.08
2023-02-17T19:11:01.419Z,7.11
2023-02-17T19:13:33.720Z,7.14
2023-02-17T19:16:11.221Z,7.16
2023-02-17T19:18:44.821Z,7.19
2023-02-17T19:21:18.299Z,7.21
2023-02-17T19:23:50.692Z,7.25
2023-02-17T19:26:23.715Z,7.27
2023-02-17T19:28:56.381Z,7.30
2023-02-17T19:31:29.541Z,7.35
2023-02-17T19:34:01.894Z,7.37
2023-02-17T19:36:34.377Z,7.39
2023-02-17T19:39:09.845Z,7.40
2023-02-17T19:41:42.731Z,7.41
2023-02-17T19:44:17.968Z,7.44
2023-02-17T19:46:50.683Z,7.46
2023-02-17T19:49:26.420Z,7.46
2023-02-17T19:51:58.746Z,7.46
2023-02-17T19:54:31.135Z,7.48
2023-02-17T19:57:03.690Z,7.48
2023-02-17T19:59:36.478Z,7.49
2023-02-17T20:02:11.062Z,7.50
2023-02-17T20:04:43.509Z,7.52
2023-02-17T20:07:15.908Z,7.54
2023-02-17T20:09:48.220Z,7.57
2023-02-17T20:12:21.752Z,7.57
2023-02-17T20:14:54.955Z,7.59
2023-02-17T20:17:27.530Z,7.62
2023-02-17T20:20:00.010Z,7.65
2023-02-17T20:22:32.432Z,7.67
2023-02-17T20:25:05.549Z,7.68
2023-02-17T20:27:39.153Z,7.73
2023-02-17T20:30:13.542Z,7.76
2023-02-17T20:32:55.029Z,7.79
2023-02-17T20:35:28.621Z,7.81
2023-02-17T20:38:02.925Z,7.83
2023-02-17T20:40:36.640Z,7.87
2023-02-17T20:43:12.327Z,7.90
2023-02-17T20:45:46.941Z,7.92
2023-02-17T20:48:19.898Z,7.94
2023-02-17T20:50:52.141Z,7.96
2023-02-17T20:53:24.920Z,8.01
2023-02-17T20:55:59.179Z,8.04
2023-02-17T20:58:34.004Z,8.06
2023-02-17T21:01:08.014Z,8.11
2023-02-17T21:03:40.421Z,8.15
2023-02-17T21:06:22.589Z,8.18
2023-02-17T21:08:58.318Z,8.20
2023-02-17T21:11:31.343Z,8.24
2023-02-17T21:14:03.649Z,8.27
2023-02-17T21:16:36.140Z,8.30
2023-02-17T21:19:09.225Z,8.31
2023-02-17T21:21:42.037Z,8.35
2023-02-17T21:24:15.316Z,8.37
2023-02-17T21:26:47.482Z,8.38
2023-02-17T21:29:19.849Z,8.39
2023-02-17T21:31:53.594Z,8.40
2023-02-17T21:34:26.082Z,8.43
2023-02-17T21:36:58.279Z,8.45
2023-02-17T21:39:30.602Z,8.48
2023-02-17T21:42:02.856Z,8.53
2023-02-17T21:44:53.329Z,8.57
2023-02-17T21:47:25.641Z,8.59
2023-02-17T21:50:00.285Z,8.60
2023-02-17T21:52:32.890Z,8.60
2023-02-17T21:55:05.248Z,8.59
2023-02-17T21:57:40.734Z,8.58
2023-02-17T22:00:15.336Z,8.57
2023-02-17T22:02:48.003Z,8.57
2023-02-17T22:05:20.458Z,8.60
2023-02-17T22:07:55.246Z,8.64
2023-02-17T22:10:27.619Z,8.67
2023-02-17T22:13:01.276Z,8.68
2023-02-17T22:15:33.925Z,8.70
2023-02-17T22:18:09.004Z,8.73
2023-02-17T22:20:47.027Z,8.76
2023-02-17T22:23:21.423Z,8.80
2023-02-17T22:25:53.661Z,8.85
2023-02-17T22:28:26.140Z,8.90
2023-02-17T22:30:58.665Z,8.91
2023-02-17T22:33:32.995Z,8.92
2023-02-17T22:36:08.678Z,8.95
2023-02-17T22:38:41.146Z,8.98
2023-02-17T22:41:15.294Z,9.01
2023-02-17T22:43:48.857Z,9.03
2023-02-17T22:46:27.363Z,9.06
2023-02-17T22:49:00.132Z,9.08
2023-02-17T22:51:39.070Z,9.13
2023-02-17T22:54:11.542Z,9.13
2023-02-17T22:56:43.798Z,9.16
2023-02-17T22:59:16.033Z,9.16
2023-02-17T23:01:48.291Z,9.18
2023-02-17T23:04:21.073Z,9.19
2023-02-17T23:06:53.843Z,9.19
2023-02-17T23:09:26.106Z,9.20
2023-02-17T23:11:59.649Z,9.20
2023-02-17T23:14:36.053Z,9.20
2023-02-17T23:17:11.126Z,9.21
2023-02-17T23:19:44.043Z,9.21
2023-02-17T23:22:19.221Z,9.23
2023-02-17T23:24:52.909Z,9.24
2023-02-17T23:27:25.293Z,9.26
2023-02-17T23:29:57.571Z,9.27
2023-02-17T23:32:30.186Z,9.26
2023-02-17T23:35:02.429Z,9.23
2023-02-17T23:37:34.947Z,9.20
2023-02-17T23:40:09.876Z,9.17
2023-02-17T23:42:42.335Z,9.11
2023-02-17T23:45:15.121Z,9.06
2023-02-17T23:47:49.721Z,9.02
2023-02-17T23:50:22.645Z,8.96
2023-02-17T23:52:55.094Z,8.90
2023-02-17T23:55:27.366Z,8.84
2023-02-17T23:58:00.795Z,8.80
